sensor_id;sensor_type;location;lat;lon;timestamp;P1;durP1;ratioP1;P2;durP2;ratioP2
57071;SDS011;42956;51.366;11.298;2022-10-16T00:00:14;2.88;;;0.55;;
57071;SDS011;42956;51.366;11.298;2022-10-16T00:02:42;1.50;;;0.70;;
57071;SDS011;42956;51.366;11.298;2022-10-16T00:05:12;1.08;;;0.40;;
57071;SDS011;42956;51.366;11.298;2022-10-16T00:07:40;1.23;;;0.47;;
57071;SDS011;42956;51.366;11.298;2022-10-16T00:10:08;1.13;;;0.60;;
57071;SDS011;42956;51.366;11.298;2022-10-16T00:12:36;0.47;;;0.47;;
57071;SDS011;42956;51.366;11.298;2022-10-16T00:15:04;0.30;;;0.30;;
57071;SDS011;42956;51.366;11.298;2022-10-16T00:17:32;2.97;;;0.60;;
57071;SDS011;42956;51.366;11.298;2022-10-16T00:20:01;0.63;;;0.63;;
57071;SDS011;42956;51.366;11.298;2022-10-16T00:22:30;0.90;;;0.70;;
57071;SDS011;42956;51.366;11.298;2022-10-16T00:24:58;1.30;;;0.50;;
57071;SDS011;42956;51.366;11.298;2022-10-16T00:27:26;0.40;;;0.40;;
57071;SDS011;42956;51.366;11.298;2022-10-16T00:29:55;0.50;;;0.50;;
57071;SDS011;42956;51.366;11.298;2022-10-16T00:32:24;0.60;;;0.60;;
57071;SDS011;42956;51.366;11.298;2022-10-16T00:34:52;0.50;;;0.50;;
57071;SDS011;42956;51.366;11.298;2022-10-16T00:37:21;1.05;;;0.60;;
57071;SDS011;42956;51.366;11.298;2022-10-16T00:39:50;3.88;;;0.52;;
57071;SDS011;42956;51.366;11.298;2022-10-16T00:42:18;0.75;;;0.50;;
57071;SDS011;42956;51.366;11.298;2022-10-16T00:44:47;1.17;;;0.60;;
57071;SDS011;42956;51.366;11.298;2022-10-16T00:47:18;0.70;;;0.65;;
57071;SDS011;42956;51.366;11.298;2022-10-16T00:49:47;0.50;;;0.50;;
57071;SDS011;42956;51.366;11.298;2022-10-16T00:52:17;1.25;;;0.60;;
57071;SDS011;42956;51.366;11.298;2022-10-16T00:54:45;0.57;;;0.57;;
57071;SDS011;42956;51.366;11.298;2022-10-16T00:57:15;1.25;;;0.60;;
57071;SDS011;42956;51.366;11.298;2022-10-16T00:59:43;2.10;;;0.73;;
57071;SDS011;42956;51.366;11.298;2022-10-16T01:02:12;0.95;;;0.50;;
57071;SDS011;42956;51.366;11.298;2022-10-16T01:04:41;0.65;;;0.47;;
57071;SDS011;42956;51.366;11.298;2022-10-16T01:07:11;2.00;;;0.52;;
57071;SDS011;42956;51.366;11.298;2022-10-16T01:09:43;2.45;;;0.70;;
57071;SDS011;42956;51.366;11.298;2022-10-16T01:12:17;1.15;;;0.80;;
57071;SDS011;42956;51.366;11.298;2022-10-16T01:14:52;4.15;;;1.75;;
57071;SDS011;42956;51.366;11.298;2022-10-16T01:17:22;1.80;;;0.88;;
57071;SDS011;42956;51.366;11.298;2022-10-16T01:19:56;1.73;;;1.02;;
57071;SDS011;42956;51.366;11.298;2022-10-16T01:22:31;2.60;;;1.10;;
57071;SDS011;42956;51.366;11.298;2022-10-16T01:25:01;1.83;;;1.02;;
57071;SDS011;42956;51.366;11.298;2022-10-16T01:27:34;1.50;;;1.35;;
57071;SDS011;42956;51.366;11.298;2022-10-16T01:30:05;1.48;;;0.95;;
57071;SDS011;42956;51.366;11.298;2022-10-16T01:32:37;2.75;;;1.13;;
57071;SDS011;42956;51.366;11.298;2022-10-16T01:35:07;1.00;;;0.90;;
57071;SDS011;42956;51.366;11.298;2022-10-16T01:37:38;1.02;;;0.85;;
57071;SDS011;42956;51.366;11.298;2022-10-16T01:40:09;1.17;;;0.90;;
57071;SDS011;42956;51.366;11.298;2022-10-16T01:42:39;2.05;;;0.85;;
57071;SDS011;42956;51.366;11.298;2022-10-16T01:45:08;1.05;;;0.68;;
57071;SDS011;42956;51.366;11.298;2022-10-16T01:47:39;1.42;;;0.85;;
57071;SDS011;42956;51.366;11.298;2022-10-16T01:50:08;1.65;;;0.82;;
57071;SDS011;42956;51.366;11.298;2022-10-16T01:52:37;0.73;;;0.63;;
57071;SDS011;42956;51.366;11.298;2022-10-16T01:55:06;2.72;;;1.13;;
57071;SDS011;42956;51.366;11.298;2022-10-16T01:57:36;2.78;;;1.00;;
57071;SDS011;42956;51.366;11.298;2022-10-16T02:00:09;0.60;;;0.60;;
57071;SDS011;42956;51.366;11.298;2022-10-16T02:02:38;1.37;;;0.90;;
57071;SDS011;42956;51.366;11.298;2022-10-16T02:05:08;1.95;;;0.77;;
57071;SDS011;42956;51.366;11.298;2022-10-16T02:07:38;0.85;;;0.85;;
57071;SDS011;42956;51.366;11.298;2022-10-16T02:10:07;1.60;;;0.80;;
57071;SDS011;42956;51.366;11.298;2022-10-16T02:12:36;3.20;;;1.83;;
57071;SDS011;42956;51.366;11.298;2022-10-16T02:15:07;0.75;;;0.70;;
57071;SDS011;42956;51.366;11.298;2022-10-16T02:17:35;5.07;;;1.30;;
57071;SDS011;42956;51.366;11.298;2022-10-16T02:20:03;0.95;;;0.82;;
57071;SDS011;42956;51.366;11.298;2022-10-16T02:22:33;1.10;;;0.82;;
57071;SDS011;42956;51.366;11.298;2022-10-16T02:25:02;1.13;;;0.80;;
57071;SDS011;42956;51.366;11.298;2022-10-16T02:27:33;1.20;;;1.08;;
57071;SDS011;42956;51.366;11.298;2022-10-16T02:30:02;4.35;;;0.95;;
57071;SDS011;42956;51.366;11.298;2022-10-16T02:32:35;2.25;;;1.33;;
57071;SDS011;42956;51.366;11.298;2022-10-16T02:35:04;6.07;;;0.80;;
57071;SDS011;42956;51.366;11.298;2022-10-16T02:37:34;0.82;;;0.77;;
57071;SDS011;42956;51.366;11.298;2022-10-16T02:40:02;1.10;;;0.57;;
57071;SDS011;42956;51.366;11.298;2022-10-16T02:42:33;0.85;;;0.63;;
57071;SDS011;42956;51.366;11.298;2022-10-16T02:45:02;2.30;;;0.70;;
57071;SDS011;42956;51.366;11.298;2022-10-16T02:47:30;0.50;;;0.50;;
57071;SDS011;42956;51.366;11.298;2022-10-16T02:49:59;1.08;;;0.75;;
57071;SDS011;42956;51.366;11.298;2022-10-16T02:52:27;1.45;;;0.82;;
57071;SDS011;42956;51.366;11.298;2022-10-16T02:54:55;0.90;;;0.77;;
57071;SDS011;42956;51.366;11.298;2022-10-16T02:57:23;1.02;;;0.77;;
57071;SDS011;42956;51.366;11.298;2022-10-16T02:59:52;1.20;;;0.70;;
57071;SDS011;42956;51.366;11.298;2022-10-16T03:02:20;0.75;;;0.70;;
57071;SDS011;42956;51.366;11.298;2022-10-16T03:04:48;0.88;;;0.70;;
57071;SDS011;42956;51.366;11.298;2022-10-16T03:07:17;1.08;;;0.80;;
57071;SDS011;42956;51.366;11.298;2022-10-16T03:09:45;2.63;;;0.88;;
57071;SDS011;42956;51.366;11.298;2022-10-16T03:12:13;2.83;;;0.80;;
57071;SDS011;42956;51.366;11.298;2022-10-16T03:14:41;1.45;;;0.70;;
57071;SDS011;42956;51.366;11.298;2022-10-16T03:17:09;1.58;;;1.23;;
57071;SDS011;42956;51.366;11.298;2022-10-16T03:19:39;6.53;;;0.80;;
57071;SDS011;42956;51.366;11.298;2022-10-16T03:22:07;0.77;;;0.63;;
57071;SDS011;42956;51.366;11.298;2022-10-16T03:24:36;0.65;;;0.65;;
57071;SDS011;42956;51.366;11.298;2022-10-16T03:27:04;1.70;;;1.02;;
57071;SDS011;42956;51.366;11.298;2022-10-16T03:29:32;0.70;;;0.70;;
57071;SDS011;42956;51.366;11.298;2022-10-16T03:32:00;2.13;;;0.90;;
57071;SDS011;42956;51.366;11.298;2022-10-16T03:34:29;0.50;;;0.50;;
57071;SDS011;42956;51.366;11.298;2022-10-16T03:37:00;3.65;;;0.90;;
57071;SDS011;42956;51.366;11.298;2022-10-16T03:39:29;2.25;;;0.80;;
57071;SDS011;42956;51.366;11.298;2022-10-16T03:41:58;1.20;;;0.90;;
57071;SDS011;42956;51.366;11.298;2022-10-16T03:44:26;1.73;;;0.70;;
57071;SDS011;42956;51.366;11.298;2022-10-16T03:46:53;1.15;;;0.80;;
57071;SDS011;42956;51.366;11.298;2022-10-16T03:49:21;0.80;;;0.80;;
57071;SDS011;42956;51.366;11.298;2022-10-16T03:51:50;2.30;;;0.80;;
57071;SDS011;42956;51.366;11.298;2022-10-16T03:54:18;0.80;;;0.70;;
57071;SDS011;42956;51.366;11.298;2022-10-16T03:56:45;1.17;;;0.60;;
57071;SDS011;42956;51.366;11.298;2022-10-16T03:59:17;1.38;;;0.73;;
57071;SDS011;42956;51.366;11.298;2022-10-16T04:01:46;2.50;;;0.55;;
57071;SDS011;42956;51.366;11.298;2022-10-16T04:04:13;1.00;;;0.90;;
57071;SDS011;42956;51.366;11.298;2022-10-16T04:06:41;4.53;;;1.60;;
57071;SDS011;42956;51.366;11.298;2022-10-16T04:09:11;2.70;;;2.20;;
57071;SDS011;42956;51.366;11.298;2022-10-16T04:15:10;1.45;;;1.20;;
57071;SDS011;42956;51.366;11.298;2022-10-16T04:17:38;4.15;;;0.90;;
57071;SDS011;42956;51.366;11.298;2022-10-16T04:20:07;1.23;;;1.13;;
57071;SDS011;42956;51.366;11.298;2022-10-16T04:22:35;0.98;;;0.88;;
57071;SDS011;42956;51.366;11.298;2022-10-16T04:25:03;1.35;;;1.25;;
57071;SDS011;42956;51.366;11.298;2022-10-16T04:27:31;1.52;;;0.90;;
57071;SDS011;42956;51.366;11.298;2022-10-16T04:29:59;1.33;;;0.90;;
57071;SDS011;42956;51.366;11.298;2022-10-16T04:32:30;1.40;;;1.17;;
57071;SDS011;42956;51.366;11.298;2022-10-16T04:34:58;2.05;;;0.88;;
57071;SDS011;42956;51.366;11.298;2022-10-16T04:37:26;2.88;;;1.10;;
57071;SDS011;42956;51.366;11.298;2022-10-16T04:39:54;1.38;;;1.05;;
57071;SDS011;42956;51.366;11.298;2022-10-16T04:42:24;1.27;;;1.17;;
57071;SDS011;42956;51.366;11.298;2022-10-16T04:44:52;2.33;;;1.50;;
57071;SDS011;42956;51.366;11.298;2022-10-16T04:47:20;1.40;;;1.30;;
57071;SDS011;42956;51.366;11.298;2022-10-16T04:49:49;1.55;;;1.30;;
57071;SDS011;42956;51.366;11.298;2022-10-16T04:52:17;1.13;;;1.02;;
57071;SDS011;42956;51.366;11.298;2022-10-16T04:54:45;3.95;;;1.40;;
57071;SDS011;42956;51.366;11.298;2022-10-16T04:57:13;1.75;;;1.40;;
57071;SDS011;42956;51.366;11.298;2022-10-16T04:59:41;2.50;;;1.25;;
57071;SDS011;42956;51.366;11.298;2022-10-16T05:02:09;1.35;;;1.25;;
57071;SDS011;42956;51.366;11.298;2022-10-16T05:04:37;1.92;;;1.73;;
57071;SDS011;42956;51.366;11.298;2022-10-16T05:07:06;2.42;;;1.33;;
57071;SDS011;42956;51.366;11.298;2022-10-16T05:09:34;1.60;;;1.50;;
57071;SDS011;42956;51.366;11.298;2022-10-16T05:12:02;1.25;;;1.15;;
57071;SDS011;42956;51.366;11.298;2022-10-16T05:14:31;1.33;;;1.17;;
57071;SDS011;42956;51.366;11.298;2022-10-16T05:16:59;5.03;;;1.17;;
57071;SDS011;42956;51.366;11.298;2022-10-16T05:19:28;1.30;;;0.82;;
57071;SDS011;42956;51.366;11.298;2022-10-16T05:21:56;2.15;;;1.25;;
57071;SDS011;42956;51.366;11.298;2022-10-16T05:24:25;2.95;;;1.20;;
57071;SDS011;42956;51.366;11.298;2022-10-16T05:26:54;1.35;;;0.98;;
57071;SDS011;42956;51.366;11.298;2022-10-16T05:29:22;1.35;;;1.25;;
57071;SDS011;42956;51.366;11.298;2022-10-16T05:31:50;1.10;;;1.00;;
57071;SDS011;42956;51.366;11.298;2022-10-16T05:34:19;3.95;;;1.33;;
57071;SDS011;42956;51.366;11.298;2022-10-16T05:36:47;2.53;;;1.10;;
57071;SDS011;42956;51.366;11.298;2022-10-16T05:39:15;2.47;;;1.10;;
57071;SDS011;42956;51.366;11.298;2022-10-16T05:41:44;3.42;;;1.48;;
57071;SDS011;42956;51.366;11.298;2022-10-16T05:44:12;1.42;;;1.20;;
57071;SDS011;42956;51.366;11.298;2022-10-16T05:46:40;0.98;;;0.82;;
57071;SDS011;42956;51.366;11.298;2022-10-16T05:49:08;2.88;;;1.15;;
57071;SDS011;42956;51.366;11.298;2022-10-16T05:51:36;2.13;;;1.58;;
57071;SDS011;42956;51.366;11.298;2022-10-16T05:54:04;4.82;;;1.90;;
57071;SDS011;42956;51.366;11.298;2022-10-16T05:56:32;2.22;;;2.03;;
57071;SDS011;42956;51.366;11.298;2022-10-16T05:59:01;3.35;;;1.60;;
57071;SDS011;42956;51.366;11.298;2022-10-16T06:01:30;2.00;;;1.58;;
57071;SDS011;42956;51.366;11.298;2022-10-16T06:03:58;3.03;;;1.60;;
57071;SDS011;42956;51.366;11.298;2022-10-16T06:06:27;2.38;;;1.90;;
57071;SDS011;42956;51.366;11.298;2022-10-16T06:08:56;1.65;;;1.40;;
57071;SDS011;42956;51.366;11.298;2022-10-16T06:11:25;2.13;;;1.55;;
57071;SDS011;42956;51.366;11.298;2022-10-16T06:13:53;1.50;;;0.90;;
57071;SDS011;42956;51.366;11.298;2022-10-16T06:16:24;1.10;;;0.75;;
57071;SDS011;42956;51.366;11.298;2022-10-16T06:18:53;1.25;;;1.15;;
57071;SDS011;42956;51.366;11.298;2022-10-16T06:21:22;1.13;;;1.00;;
57071;SDS011;42956;51.366;11.298;2022-10-16T06:23:51;4.10;;;1.38;;
57071;SDS011;42956;51.366;11.298;2022-10-16T06:26:20;4.60;;;1.25;;
57071;SDS011;42956;51.366;11.298;2022-10-16T06:28:48;3.17;;;1.27;;
57071;SDS011;42956;51.366;11.298;2022-10-16T06:31:17;3.75;;;1.20;;
57071;SDS011;42956;51.366;11.298;2022-10-16T06:33:49;2.08;;;1.88;;
57071;SDS011;42956;51.366;11.298;2022-10-16T06:36:17;1.42;;;1.33;;
57071;SDS011;42956;51.366;11.298;2022-10-16T06:38:46;3.88;;;1.10;;
57071;SDS011;42956;51.366;11.298;2022-10-16T06:41:14;1.35;;;1.23;;
57071;SDS011;42956;51.366;11.298;2022-10-16T06:43:43;1.48;;;1.05;;
57071;SDS011;42956;51.366;11.298;2022-10-16T06:46:13;2.10;;;1.05;;
57071;SDS011;42956;51.366;11.298;2022-10-16T06:48:41;5.28;;;1.35;;
57071;SDS011;42956;51.366;11.298;2022-10-16T06:51:11;0.80;;;0.80;;
57071;SDS011;42956;51.366;11.298;2022-10-16T06:53:39;0.88;;;0.80;;
57071;SDS011;42956;51.366;11.298;2022-10-16T06:56:27;1.27;;;0.82;;
57071;SDS011;42956;51.366;11.298;2022-10-16T06:58:56;4.32;;;1.10;;
57071;SDS011;42956;51.366;11.298;2022-10-16T07:01:24;6.63;;;1.50;;
57071;SDS011;42956;51.366;11.298;2022-10-16T07:03:52;2.25;;;0.80;;
57071;SDS011;42956;51.366;11.298;2022-10-16T07:06:23;1.60;;;1.20;;
57071;SDS011;42956;51.366;11.298;2022-10-16T07:08:51;4.90;;;1.40;;
57071;SDS011;42956;51.366;11.298;2022-10-16T07:11:20;1.50;;;1.40;;
57071;SDS011;42956;51.366;11.298;2022-10-16T07:13:48;7.32;;;1.67;;
57071;SDS011;42956;51.366;11.298;2022-10-16T07:16:21;2.25;;;1.67;;
57071;SDS011;42956;51.366;11.298;2022-10-16T07:18:50;5.85;;;1.90;;
57071;SDS011;42956;51.366;11.298;2022-10-16T07:21:22;5.75;;;3.03;;
57071;SDS011;42956;51.366;11.298;2022-10-16T07:23:52;4.53;;;3.45;;
57071;SDS011;42956;51.366;11.298;2022-10-16T07:26:20;11.60;;;3.58;;
57071;SDS011;42956;51.366;11.298;2022-10-16T07:28:48;6.63;;;2.88;;
57071;SDS011;42956;51.366;11.298;2022-10-16T07:31:17;6.40;;;2.50;;
57071;SDS011;42956;51.366;11.298;2022-10-16T07:33:46;4.13;;;2.10;;
57071;SDS011;42956;51.366;11.298;2022-10-16T07:36:15;7.38;;;4.35;;
57071;SDS011;42956;51.366;11.298;2022-10-16T07:38:44;17.35;;;8.90;;
57071;SDS011;42956;51.366;11.298;2022-10-16T07:41:14;16.15;;;10.10;;
57071;SDS011;42956;51.366;11.298;2022-10-16T07:43:44;7.53;;;5.45;;
57071;SDS011;42956;51.366;11.298;2022-10-16T07:46:13;5.80;;;4.30;;
57071;SDS011;42956;51.366;11.298;2022-10-16T07:48:41;4.15;;;3.25;;
57071;SDS011;42956;51.366;11.298;2022-10-16T07:51:12;4.20;;;2.90;;
57071;SDS011;42956;51.366;11.298;2022-10-16T07:53:41;2.97;;;1.52;;
57071;SDS011;42956;51.366;11.298;2022-10-16T07:56:11;2.00;;;1.83;;
57071;SDS011;42956;51.366;11.298;2022-10-16T07:58:39;1.85;;;1.23;;
57071;SDS011;42956;51.366;11.298;2022-10-16T08:01:08;1.88;;;1.30;;
57071;SDS011;42956;51.366;11.298;2022-10-16T08:03:41;1.40;;;1.00;;
57071;SDS011;42956;51.366;11.298;2022-10-16T08:06:09;2.53;;;1.20;;
57071;SDS011;42956;51.366;11.298;2022-10-16T08:08:37;1.30;;;0.93;;
57071;SDS011;42956;51.366;11.298;2022-10-16T08:11:05;2.10;;;1.20;;
57071;SDS011;42956;51.366;11.298;2022-10-16T08:13:35;10.93;;;1.23;;
57071;SDS011;42956;51.366;11.298;2022-10-16T08:16:03;4.55;;;1.48;;
57071;SDS011;42956;51.366;11.298;2022-10-16T08:18:34;3.30;;;1.13;;
57071;SDS011;42956;51.366;11.298;2022-10-16T08:21:03;3.22;;;1.08;;
57071;SDS011;42956;51.366;11.298;2022-10-16T08:23:31;2.25;;;1.25;;
57071;SDS011;42956;51.366;11.298;2022-10-16T08:26:02;2.03;;;1.35;;
57071;SDS011;42956;51.366;11.298;2022-10-16T08:28:30;1.98;;;1.40;;
57071;SDS011;42956;51.366;11.298;2022-10-16T08:31:10;1.65;;;1.10;;
57071;SDS011;42956;51.366;11.298;2022-10-16T08:33:38;1.85;;;1.40;;
57071;SDS011;42956;51.366;11.298;2022-10-16T08:36:07;4.13;;;1.25;;
57071;SDS011;42956;51.366;11.298;2022-10-16T08:38:36;1.35;;;1.25;;
57071;SDS011;42956;51.366;11.298;2022-10-16T08:41:13;1.70;;;1.30;;
57071;SDS011;42956;51.366;11.298;2022-10-16T08:43:43;1.48;;;1.20;;
57071;SDS011;42956;51.366;11.298;2022-10-16T08:46:18;1.08;;;0.95;;
57071;SDS011;42956;51.366;11.298;2022-10-16T08:48:49;2.13;;;1.70;;
57071;SDS011;42956;51.366;11.298;2022-10-16T08:51:18;1.75;;;0.88;;
57071;SDS011;42956;51.366;11.298;2022-10-16T08:53:49;1.20;;;1.08;;
57071;SDS011;42956;51.366;11.298;2022-10-16T08:56:17;3.05;;;1.13;;
57071;SDS011;42956;51.366;11.298;2022-10-16T08:58:46;1.45;;;1.20;;
57071;SDS011;42956;51.366;11.298;2022-10-16T09:01:15;8.50;;;1.50;;
57071;SDS011;42956;51.366;11.298;2022-10-16T09:03:53;2.17;;;1.23;;
57071;SDS011;42956;51.366;11.298;2022-10-16T09:06:29;2.38;;;1.63;;
57071;SDS011;42956;51.366;11.298;2022-10-16T09:09:03;2.53;;;1.27;;
57071;SDS011;42956;51.366;11.298;2022-10-16T09:11:36;2.45;;;1.10;;
57071;SDS011;42956;51.366;11.298;2022-10-16T09:14:11;2.22;;;1.00;;
57071;SDS011;42956;51.366;11.298;2022-10-16T09:16:44;4.07;;;0.70;;
57071;SDS011;42956;51.366;11.298;2022-10-16T09:19:20;1.00;;;0.85;;
57071;SDS011;42956;51.366;11.298;2022-10-16T09:21:52;1.23;;;0.93;;
57071;SDS011;42956;51.366;11.298;2022-10-16T09:24:21;0.77;;;0.65;;
57071;SDS011;42956;51.366;11.298;2022-10-16T09:26:54;0.70;;;0.70;;
57071;SDS011;42956;51.366;11.298;2022-10-16T09:29:22;3.65;;;1.00;;
57071;SDS011;42956;51.366;11.298;2022-10-16T09:31:51;2.33;;;1.25;;
57071;SDS011;42956;51.366;11.298;2022-10-16T09:34:24;1.67;;;1.15;;
57071;SDS011;42956;51.366;11.298;2022-10-16T09:36:55;1.83;;;1.02;;
57071;SDS011;42956;51.366;11.298;2022-10-16T09:39:24;4.40;;;1.02;;
57071;SDS011;42956;51.366;11.298;2022-10-16T09:41:52;5.60;;;0.95;;
57071;SDS011;42956;51.366;11.298;2022-10-16T09:44:21;1.02;;;1.00;;
57071;SDS011;42956;51.366;11.298;2022-10-16T09:47:00;1.02;;;0.93;;
57071;SDS011;42956;51.366;11.298;2022-10-16T09:49:30;1.63;;;1.10;;
57071;SDS011;42956;51.366;11.298;2022-10-16T09:52:04;3.80;;;0.80;;
57071;SDS011;42956;51.366;11.298;2022-10-16T09:54:32;0.93;;;0.73;;
57071;SDS011;42956;51.366;11.298;2022-10-16T09:57:06;1.15;;;0.70;;
57071;SDS011;42956;51.366;11.298;2022-10-16T09:59:45;1.65;;;0.95;;
57071;SDS011;42956;51.366;11.298;2022-10-16T10:02:13;0.88;;;0.80;;
57071;SDS011;42956;51.366;11.298;2022-10-16T10:04:47;0.60;;;0.50;;
57071;SDS011;42956;51.366;11.298;2022-10-16T10:07:17;0.73;;;0.65;;
57071;SDS011;42956;51.366;11.298;2022-10-16T10:09:45;2.28;;;0.80;;
57071;SDS011;42956;51.366;11.298;2022-10-16T10:12:17;0.95;;;0.68;;
57071;SDS011;42956;51.366;11.298;2022-10-16T10:14:52;2.45;;;0.50;;
57071;SDS011;42956;51.366;11.298;2022-10-16T10:17:21;0.50;;;0.50;;
57071;SDS011;42956;51.366;11.298;2022-10-16T10:19:52;1.60;;;0.73;;
57071;SDS011;42956;51.366;11.298;2022-10-16T10:22:25;1.27;;;0.50;;
57071;SDS011;42956;51.366;11.298;2022-10-16T10:24:57;4.63;;;0.80;;
57071;SDS011;42956;51.366;11.298;2022-10-16T10:27:30;0.68;;;0.68;;
57071;SDS011;42956;51.366;11.298;2022-10-16T10:30:01;1.35;;;0.70;;
57071;SDS011;42956;51.366;11.298;2022-10-16T10:32:32;0.85;;;0.47;;
57071;SDS011;42956;51.366;11.298;2022-10-16T10:35:12;0.77;;;0.57;;
57071;SDS011;42956;51.366;11.298;2022-10-16T10:37:45;0.70;;;0.70;;
57071;SDS011;42956;51.366;11.298;2022-10-16T10:40:16;0.88;;;0.70;;
57071;SDS011;42956;51.366;11.298;2022-10-16T10:42:51;2.83;;;0.70;;
57071;SDS011;42956;51.366;11.298;2022-10-16T10:45:23;0.95;;;0.60;;
57071;SDS011;42956;51.366;11.298;2022-10-16T10:47:58;0.70;;;0.60;;
57071;SDS011;42956;51.366;11.298;2022-10-16T10:50:30;0.70;;;0.50;;
57071;SDS011;42956;51.366;11.298;2022-10-16T10:53:03;0.45;;;0.45;;
57071;SDS011;42956;51.366;11.298;2022-10-16T10:55:37;2.88;;;0.55;;
57071;SDS011;42956;51.366;11.298;2022-10-16T10:58:12;1.30;;;0.70;;
57071;SDS011;42956;51.366;11.298;2022-10-16T11:00:45;1.00;;;0.45;;
57071;SDS011;42956;51.366;11.298;2022-10-16T11:03:21;0.55;;;0.52;;
57071;SDS011;42956;51.366;11.298;2022-10-16T11:05:54;0.68;;;0.63;;
57071;SDS011;42956;51.366;11.298;2022-10-16T11:08:26;0.73;;;0.50;;
57071;SDS011;42956;51.366;11.298;2022-10-16T11:10:57;0.43;;;0.43;;
57071;SDS011;42956;51.366;11.298;2022-10-16T11:13:28;3.15;;;0.50;;
57071;SDS011;42956;51.366;11.298;2022-10-16T11:15:58;0.82;;;0.60;;
57071;SDS011;42956;51.366;11.298;2022-10-16T11:18:29;0.50;;;0.50;;
57071;SDS011;42956;51.366;11.298;2022-10-16T11:21:02;1.17;;;0.98;;
57071;SDS011;42956;51.366;11.298;2022-10-16T11:23:34;1.58;;;0.50;;
57071;SDS011;42956;51.366;11.298;2022-10-16T11:26:05;1.65;;;0.70;;
57071;SDS011;42956;51.366;11.298;2022-10-16T11:28:38;2.17;;;0.45;;
57071;SDS011;42956;51.366;11.298;2022-10-16T11:31:11;2.13;;;0.50;;
57071;SDS011;42956;51.366;11.298;2022-10-16T11:33:42;1.98;;;0.55;;
57071;SDS011;42956;51.366;11.298;2022-10-16T11:36:15;1.35;;;0.70;;
57071;SDS011;42956;51.366;11.298;2022-10-16T11:38:47;1.95;;;0.80;;
57071;SDS011;42956;51.366;11.298;2022-10-16T11:43:46;3.92;;;0.73;;
57071;SDS011;42956;51.366;11.298;2022-10-16T11:46:17;2.65;;;0.82;;
57071;SDS011;42956;51.366;11.298;2022-10-16T11:48:45;3.97;;;0.70;;
57071;SDS011;42956;51.366;11.298;2022-10-16T11:51:17;2.05;;;0.70;;
57071;SDS011;42956;51.366;11.298;2022-10-16T11:53:50;0.73;;;0.60;;
57071;SDS011;42956;51.366;11.298;2022-10-16T11:56:21;1.00;;;0.75;;
57071;SDS011;42956;51.366;11.298;2022-10-16T11:58:52;0.52;;;0.52;;
57071;SDS011;42956;51.366;11.298;2022-10-16T12:01:22;2.50;;;0.45;;
57071;SDS011;42956;51.366;11.298;2022-10-16T12:03:55;0.82;;;0.73;;
57071;SDS011;42956;51.366;11.298;2022-10-16T12:06:31;0.93;;;0.70;;
57071;SDS011;42956;51.366;11.298;2022-10-16T12:09:00;0.77;;;0.75;;
57071;SDS011;42956;51.366;11.298;2022-10-16T12:11:32;2.45;;;0.85;;
57071;SDS011;42956;51.366;11.298;2022-10-16T12:14:05;4.90;;;0.80;;
57071;SDS011;42956;51.366;11.298;2022-10-16T12:16:33;2.45;;;0.73;;
57071;SDS011;42956;51.366;11.298;2022-10-16T12:19:11;1.08;;;0.70;;
57071;SDS011;42956;51.366;11.298;2022-10-16T12:21:41;3.08;;;0.60;;
57071;SDS011;42956;51.366;11.298;2022-10-16T12:24:20;0.50;;;0.43;;
57071;SDS011;42956;51.366;11.298;2022-10-16T12:26:48;3.03;;;0.50;;
57071;SDS011;42956;51.366;11.298;2022-10-16T12:29:22;3.70;;;0.47;;
57071;SDS011;42956;51.366;11.298;2022-10-16T12:34:26;0.68;;;0.65;;
57071;SDS011;42956;51.366;11.298;2022-10-16T12:37:06;1.45;;;0.63;;
57071;SDS011;42956;51.366;11.298;2022-10-16T12:39:35;0.32;;;0.32;;
57071;SDS011;42956;51.366;11.298;2022-10-16T12:42:05;0.85;;;0.43;;
57071;SDS011;42956;51.366;11.298;2022-10-16T12:44:33;0.60;;;0.55;;
57071;SDS011;42956;51.366;11.298;2022-10-16T12:47:02;1.25;;;0.50;;
57071;SDS011;42956;51.366;11.298;2022-10-16T12:49:31;2.63;;;0.70;;
57071;SDS011;42956;51.366;11.298;2022-10-16T12:52:00;0.50;;;0.50;;
57071;SDS011;42956;51.366;11.298;2022-10-16T12:54:29;1.35;;;0.32;;
57071;SDS011;42956;51.366;11.298;2022-10-16T12:57:17;0.63;;;0.63;;
57071;SDS011;42956;51.366;11.298;2022-10-16T12:59:51;0.50;;;0.50;;
57071;SDS011;42956;51.366;11.298;2022-10-16T13:02:45;0.57;;;0.50;;
57071;SDS011;42956;51.366;11.298;2022-10-16T13:05:26;0.60;;;0.60;;
57071;SDS011;42956;51.366;11.298;2022-10-16T13:08:01;3.47;;;0.52;;
57071;SDS011;42956;51.366;11.298;2022-10-16T13:10:34;2.08;;;0.35;;
57071;SDS011;42956;51.366;11.298;2022-10-16T13:13:13;0.85;;;0.47;;
57071;SDS011;42956;51.366;11.298;2022-10-16T13:15:57;0.65;;;0.40;;
57071;SDS011;42956;51.366;11.298;2022-10-16T13:18:27;0.22;;;0.22;;
57071;SDS011;42956;51.366;11.298;2022-10-16T13:21:03;0.40;;;0.40;;
57071;SDS011;42956;51.366;11.298;2022-10-16T13:23:36;4.30;;;0.70;;
57071;SDS011;42956;51.366;11.298;2022-10-16T13:26:09;1.00;;;0.70;;
57071;SDS011;42956;51.366;11.298;2022-10-16T13:28:38;0.40;;;0.30;;
57071;SDS011;42956;51.366;11.298;2022-10-16T13:31:09;0.88;;;0.40;;
57071;SDS011;42956;51.366;11.298;2022-10-16T13:33:41;1.38;;;0.43;;
57071;SDS011;42956;51.366;11.298;2022-10-16T13:36:17;0.30;;;0.25;;
57071;SDS011;42956;51.366;11.298;2022-10-16T13:38:48;2.03;;;0.35;;
57071;SDS011;42956;51.366;11.298;2022-10-16T13:41:17;0.85;;;0.40;;
57071;SDS011;42956;51.366;11.298;2022-10-16T13:43:46;0.70;;;0.38;;
57071;SDS011;42956;51.366;11.298;2022-10-16T13:46:17;1.73;;;0.43;;
57071;SDS011;42956;51.366;11.298;2022-10-16T13:48:55;3.83;;;0.50;;
57071;SDS011;42956;51.366;11.298;2022-10-16T13:51:26;0.20;;;0.20;;
57071;SDS011;42956;51.366;11.298;2022-10-16T13:53:56;0.73;;;0.40;;
57071;SDS011;42956;51.366;11.298;2022-10-16T13:56:25;0.95;;;0.70;;
57071;SDS011;42956;51.366;11.298;2022-10-16T13:59:00;6.03;;;0.88;;
57071;SDS011;42956;51.366;11.298;2022-10-16T14:01:29;0.38;;;0.32;;
57071;SDS011;42956;51.366;11.298;2022-10-16T14:04:02;0.30;;;0.30;;
57071;SDS011;42956;51.366;11.298;2022-10-16T14:06:31;0.73;;;0.40;;
57071;SDS011;42956;51.366;11.298;2022-10-16T14:09:04;0.35;;;0.35;;
57071;SDS011;42956;51.366;11.298;2022-10-16T14:11:33;0.57;;;0.45;;
57071;SDS011;42956;51.366;11.298;2022-10-16T14:14:02;0.70;;;0.60;;
57071;SDS011;42956;51.366;11.298;2022-10-16T14:16:31;0.57;;;0.38;;
57071;SDS011;42956;51.366;11.298;2022-10-16T14:19:00;0.45;;;0.45;;
57071;SDS011;42956;51.366;11.298;2022-10-16T14:21:28;0.60;;;0.32;;
57071;SDS011;42956;51.366;11.298;2022-10-16T14:23:56;0.65;;;0.65;;
57071;SDS011;42956;51.366;11.298;2022-10-16T14:26:27;2.35;;;0.55;;
57071;SDS011;42956;51.366;11.298;2022-10-16T14:29:03;1.42;;;0.50;;
57071;SDS011;42956;51.366;11.298;2022-10-16T14:31:32;0.77;;;0.40;;
57071;SDS011;42956;51.366;11.298;2022-10-16T14:34:02;4.30;;;1.05;;
57071;SDS011;42956;51.366;11.298;2022-10-16T14:36:31;0.43;;;0.43;;
57071;SDS011;42956;51.366;11.298;2022-10-16T14:39:02;1.52;;;0.38;;
57071;SDS011;42956;51.366;11.298;2022-10-16T14:41:42;0.85;;;0.40;;
57071;SDS011;42956;51.366;11.298;2022-10-16T14:44:11;4.10;;;0.40;;
57071;SDS011;42956;51.366;11.298;2022-10-16T14:46:40;1.23;;;0.47;;
57071;SDS011;42956;51.366;11.298;2022-10-16T14:49:13;0.57;;;0.50;;
57071;SDS011;42956;51.366;11.298;2022-10-16T14:51:43;0.40;;;0.40;;
57071;SDS011;42956;51.366;11.298;2022-10-16T14:54:12;1.65;;;0.40;;
57071;SDS011;42956;51.366;11.298;2022-10-16T14:56:43;3.25;;;0.40;;
57071;SDS011;42956;51.366;11.298;2022-10-16T14:59:13;2.63;;;0.60;;